Latest Weather Observations for Hervey Bay

IDQ60801

Issued at 1:32 pm EST Saturday 5 September 2015 (issued every 30 minutes, with the page automatically refreshed every 10 minutes)

About weather observations | Map of weather stations | Latest weather observations for QLD | Other Formats
Station Details ID: 040405 Name: HERVEY BAY AIRPORT Lat: -25.32 Lon: 152.88 Height: 12.98 m
Data from the previous 72 hours. | See also: Recent months at Hervey Bay
Date/Time
EST
Temp
°C
App
Temp
°C
Dew
Point
Rel
Hum
%
Delta-T
°C
Wind Press
QNH
hPa
Press
MSL
hPa
Rain
since 9 am
mm
Dir
 
Spd
km/h
Gust
km/h
Spd
kts
Gust
kts
05/01:00pm 23.5 21.4 14.8 58 5.2 SE 19 28 10 15 1018.8 1018.7 0.2
05/12:30pm 23.2 20.9 14.2 57 5.3 SE 19 32 10 17 1019.1 1019.0 0.2
05/12:00pm 22.8 20.7 14.6 60 4.8 SE 19 32 10 17 1019.5 1019.4 0.2
05/11:30am 23.0 21.3 14.8 60 4.9 SE 17 30 9 16 1019.9 1019.8 0.2
05/11:00am 22.5 20.7 15.4 64 4.2 SE 19 26 10 14 1020.3 1020.2 0.2
05/10:30am 21.8 20.2 14.9 65 4.1 SSE 17 28 9 15 1020.7 1020.6 0.0
05/10:00am 22.4 21.8 15.7 66 4.0 SSE 13 20 7 11 1021.0 1020.9 0.0
05/09:30am 20.9 20.1 15.2 70 3.4 SSE 13 22 7 12 1021.1 1021.0 0.0
05/09:00am 19.0 17.7 14.7 76 2.5 SSW 15 20 8 11 1021.3 1021.2 0.4
05/08:30am 18.7 17.8 14.8 78 2.3 SSW 13 17 7 9 1021.2 1021.1 0.4
05/08:00am 17.6 15.8 14.5 82 1.8 SSW 17 24 9 13 1021.0 1020.9 0.4
05/07:30am 16.2 14.1 13.7 85 1.4 SSW 17 20 9 11 1020.7 1020.6 0.4
05/07:00am 15.4 13.7 13.6 89 1.0 SSW 15 19 8 10 1020.5 1020.4 0.4
05/06:30am 14.9 14.0 13.6 92 0.7 SW 11 15 6 8 1020.2 1020.1 0.4
05/06:00am 14.9 13.7 13.9 94 0.6 SSW 13 17 7 9 1019.9 1019.8 0.4
05/05:30am 14.4 13.4 13.3 93 0.6 SSW 11 15 6 8 1019.6 1019.5 0.4
05/05:00am 14.9 14.8 13.8 93 0.6 SW 7 11 4 6 1019.1 1019.0 0.4
05/04:30am 16.4 16.5 15.4 94 0.6 SSE 9 15 5 8 1018.9 1018.8 0.4
05/04:00am 15.6 14.7 14.8 95 0.5 S 13 22 7 12 1018.7 1018.6 0.4
05/03:30am 14.3 13.2 13.2 93 0.6 SSW 11 13 6 7 1018.6 1018.5 0.0
05/03:00am 14.2 13.1 13.1 93 0.6 SSW 11 15 6 8 1018.5 1018.4 0.0
05/02:30am 13.8 13.3 12.7 93 0.6 SW 7 11 4 6 1018.6 1018.5 0.0
05/02:00am 13.5 12.9 12.2 92 0.7 SSW 7 11 4 6 1018.8 1018.7 0.0
05/01:30am 14.0 13.1 12.6 91 0.8 SW 9 15 5 8 1019.1 1019.0 0.0
05/01:00am 13.8 12.5 12.4 91 0.8 SW 11 15 6 8 1019.4 1019.3 0.0
05/12:30am 13.4 12.3 12.1 92 0.7 SW 9 13 5 7 1019.7 1019.6 0.0
05/12:00am 13.4 12.5 12.5 94 0.5 SW 9 13 5 7 1019.7 1019.6 0.0
 
Date/Time
EST
Temp
°C
App
Temp
°C
Dew
Point
Rel
Hum
%
Delta-T
°C
Wind Press
QNH
hPa
Press
MSL
hPa
Rain
since 9 am
mm
Dir
 
Spd
km/h
Gust
km/h
Spd
kts
Gust
kts
04/11:30pm 12.2 10.9 11.3 94 0.5 SW 9 11 5 6 1019.8 1019.7 0.0
04/11:00pm 11.8 12.0 10.5 92 0.7 CALM 0 0 0 0 1020.0 1019.9 0.0
04/10:30pm 12.4 11.5 11.3 93 0.6 SSW 7 9 4 5 1020.2 1020.1 0.0
04/10:00pm 12.4 11.5 11.3 93 0.6 SW 7 7 4 4 1020.1 1020.0 0.0
04/09:30pm 12.8 13.2 11.4 91 0.7 CALM 0 0 0 0 1020.0 1019.9 0.0
04/09:00pm 13.0 13.5 11.6 91 0.7 CALM 0 0 0 0 1019.6 1019.5 0.0
04/08:30pm 13.2 12.6 11.8 91 0.7 SW 6 6 3 3 1019.6 1019.5 0.0
04/08:00pm 13.5 12.9 11.6 88 1.0 SSW 6 7 3 4 1019.4 1019.3 0.0
04/07:30pm 14.3 13.5 11.6 84 1.4 SSE 7 7 4 4 1019.2 1019.1 0.0
04/07:00pm 16.3 15.6 11.9 75 2.4 S 7 9 4 5 1018.8 1018.7 0.0
04/06:30pm 17.0 16.2 11.7 71 2.9 SSE 7 11 4 6 1018.6 1018.5 0.0
04/06:00pm 17.8 16.5 11.1 65 3.6 S 9 13 5 7 1018.3 1018.2 0.0
04/05:30pm 18.9 16.3 10.7 59 4.4 S 15 22 8 12 1018.2 1018.1 0.0
04/05:00pm 19.5 15.5 10.5 56 4.9 SSE 22 32 12 17 1017.8 1017.7 0.0
04/04:30pm 20.4 17.0 10.5 53 5.4 SE 19 28 10 15 1017.4 1017.3 0.0
04/04:00pm 21.2 17.5 10.1 49 6.0 SSE 20 33 11 18 1016.9 1016.8 0.0
04/03:30pm 21.8 18.2 8.3 42 7.1 SE 17 28 9 15 1016.6 1016.5 0.0
04/03:00pm 21.9 16.9 8.1 41 7.2 ESE 24 32 13 17 1016.4 1016.3 0.0
04/02:30pm 22.8 19.4 9.2 42 7.3 SE 17 32 9 17 1016.3 1016.2 0.0
04/02:00pm 23.3 19.4 7.0 35 8.4 S 17 28 9 15 1016.2 1016.1 0.0
04/01:30pm 22.8 19.4 7.8 38 7.9 S 15 24 8 13 1016.4 1016.3 0.0
04/01:00pm 22.6 19.2 9.0 42 7.3 SSE 17 24 9 13 1016.5 1016.4 0.0
04/12:30pm 21.8 18.3 7.2 39 7.5 S 15 28 8 15 1017.1 1017.0 0.0
04/12:00pm 21.7 17.3 6.4 37 7.7 SSE 19 26 10 14 1017.6 1017.5 0.0
04/11:30am 21.0 17.1 6.9 40 7.2 SSW 17 30 9 16 1018.1 1018.0 0.0
04/11:00am 20.6 16.1 6.9 41 6.9 SSW 20 30 11 16 1018.2 1018.1 0.0
04/10:30am 20.1 15.2 7.1 43 6.6 SW 22 32 12 17 1018.4 1018.3 0.0
04/10:00am 19.3 14.2 7.7 47 5.9 SW 24 35 13 19 1018.4 1018.3 0.0
04/09:30am 18.6 13.3 6.8 46 5.9 SW 24 37 13 20 1018.5 1018.4 0.0
04/09:00am 18.1 13.0 7.5 50 5.3 SW 24 35 13 19 1018.5 1018.4 8.4
04/08:30am 17.5 13.2 7.8 53 4.9 SW 20 28 11 15 1018.6 1018.5 8.4
04/08:00am 16.5 12.9 8.2 58 4.2 SW 17 26 9 14 1018.6 1018.5 8.4
04/07:30am 14.9 11.5 7.5 61 3.7 SW 15 22 8 12 1018.3 1018.2 8.4
04/07:00am 12.6 9.6 7.5 71 2.5 WSW 13 17 7 9 1018.3 1018.2 8.4
04/06:30am 8.6 6.3 7.4 92 0.6 W 9 11 5 6 1018.1 1018.0 8.4
04/06:00am 7.6 6.4 6.5 93 0.5 W 2 6 1 3 1017.7 1017.6 8.4
04/05:30am 7.8 7.0 6.7 93 0.5 CALM 0 2 0 1 1017.3 1017.2 8.4
04/05:00am 8.1 7.4 7.0 93 0.5 CALM 0 0 0 0 1016.9 1016.8 8.4
04/04:30am 8.5 7.9 7.3 92 0.6 CALM 0 0 0 0 1016.6 1016.5 8.4
04/04:00am 8.9 7.9 7.5 91 0.7 S 2 6 1 3 1016.5 1016.4 8.4
04/03:30am 9.3 8.7 7.4 88 0.9 CALM 0 0 0 0 1016.3 1016.2 8.4
04/03:00am 10.7 10.3 8.3 85 1.2 CALM 0 0 0 0 1016.3 1016.2 8.4
04/02:30am 10.2 8.0 7.8 85 1.2 WSW 9 15 5 8 1016.2 1016.1 8.4
04/02:00am 10.5 9.4 8.3 86 1.1 SSW 4 6 2 3 1016.3 1016.2 8.4
04/01:30am 12.3 10.6 7.4 72 2.4 SSW 6 7 3 4 1016.3 1016.2 8.4
04/01:00am 13.4 11.1 7.6 68 2.8 SSW 9 11 5 6 1016.2 1016.1 8.4
04/12:30am 11.9 10.1 9.6 86 1.2 SW 9 11 5 6 1016.0 1015.9 8.4
04/12:00am 12.1 10.7 8.9 81 1.6 WSW 6 9 3 5 1016.0 1015.9 8.4
 
Date/Time
EST
Temp
°C
App
Temp
°C
Dew
Point
Rel
Hum
%
Delta-T
°C
Wind Press
QNH
hPa
Press
MSL
hPa
Rain
since 9 am
mm
Dir
 
Spd
km/h
Gust
km/h
Spd
kts
Gust
kts
03/11:30pm 14.5 11.4 7.1 61 3.6 WSW 13 17 7 9 1015.9 1015.8 8.4
03/11:00pm 11.6 10.1 9.2 85 1.2 W 7 13 4 7 1015.7 1015.6 8.4
03/10:30pm 12.5 11.2 9.9 84 1.3 WSW 7 9 4 5 1015.4 1015.3 8.4
03/10:00pm 14.0 12.5 9.2 73 2.4 SW 7 9 4 5 1015.4 1015.3 8.4
03/09:30pm 17.5 14.3 5.1 44 6.0 WSW 11 15 6 8 1015.0 1014.9 8.4
03/09:00pm 19.1 14.5 5.6 41 6.6 WSW 19 26 10 14 1014.4 1014.3 8.4
03/08:30pm 17.1 14.7 10.0 63 3.7 WSW 13 17 7 9 1014.3 1014.2 8.4
03/08:00pm 17.4 17.5 15.4 88 1.2 W 9 15 5 8 1014.1 1014.0 8.2
03/07:57pm 17.5 18.1 15.7 89 1.1 W 7 13 4 7 1014.0 1013.9 8.2
03/07:30pm 19.7 21.4 18.4 92 0.8 WNW 7 11 4 6 1013.9 1013.8 8.2
03/07:24pm 19.6 21.1 18.1 91 0.9 WNW 7 9 4 5 1013.8 1013.7 8.2
03/07:00pm 20.9 21.9 19.4 91 1.0 NNW 13 17 7 9 1013.3 1013.2 8.0
03/06:30pm 21.3 21.0 19.6 90 1.1 NNW 20 30 11 16 1012.7 1012.6 8.0
03/06:00pm 21.6 21.4 19.7 89 1.2 NNW 20 32 11 17 1012.1 1012.0 8.0
03/05:30pm 21.8 20.8 19.7 88 1.3 NNW 24 35 13 19 1011.5 1011.4 8.0
03/05:00pm 22.7 23.0 19.5 82 2.0 NNW 17 26 9 14 1011.1 1011.0 8.0
03/04:30pm 22.9 22.5 19.3 80 2.3 NNW 20 26 11 14 1010.6 1010.5 8.0
03/04:00pm 22.8 22.3 19.2 80 2.3 NNW 20 28 11 15 1010.5 1010.4 8.0
03/03:30pm 22.4 21.1 19.9 86 1.6 NNW 26 35 14 19 1010.4 1010.3 8.0
03/03:22pm 21.9 20.8 19.5 86 1.5 NNW 24 37 13 20 1010.2 1010.1 8.0
03/03:00pm 21.2 21.0 19.7 91 1.0 NW 20 30 11 16 1010.3 1010.2 8.0
03/02:42pm 20.9 19.5 19.6 92 0.8 NNW 26 46 14 25 1010.3 1010.2 8.0
03/02:37pm 21.3 19.6 19.8 91 1.0 NNW 28 46 15 25 1010.1 1010.0 8.0
03/02:30pm 21.1 21.1 19.7 92 0.9 NW 19 32 10 17 1010.3 1010.2 8.0
03/02:05pm 21.2 19.4 19.5 90 1.1 N 28 43 15 23 1009.8 1009.7 2.0
03/02:00pm 21.4 20.3 19.5 89 1.2 NNW 24 35 13 19 1010.0 1009.9 1.4
03/01:47pm 21.4 20.7 19.5 89 1.2 N 22 35 12 19 1010.3 1010.2 0.8
03/01:30pm 21.6 18.9 19.2 86 1.5 N 32 43 17 23 1010.2 1010.1 0.6
03/01:00pm 22.9 20.4 18.9 78 2.5 N 30 43 16 23 1010.6 1010.5 0.0
03/12:51pm 23.7 21.0 19.2 76 2.9 N 32 50 17 27 1010.5 1010.4 0.0
03/12:30pm 24.3 21.8 19.8 76 2.9 N 32 46 17 25 1011.1 1011.0 0.0
03/12:00pm 23.5 20.8 19.6 79 2.5 N 33 54 18 29 1011.9 1011.8 0.0
03/11:35am 22.9 20.9 19.1 79 2.4 N 28 46 15 25 1012.6 1012.5 0.0
03/11:30am 22.5 20.6 19.3 82 2.0 N 28 43 15 23 1012.8 1012.7 0.0
03/11:15am 22.0 19.9 19.0 83 1.9 N 28 46 15 25 1013.3 1013.2 0.0
03/11:00am 21.8 20.5 19.0 84 1.8 N 24 35 13 19 1013.7 1013.6 0.0
03/10:30am 21.3 19.9 18.7 85 1.6 N 24 35 13 19 1014.3 1014.2 0.0
03/10:00am 21.3 19.9 18.7 85 1.6 N 24 39 13 21 1014.5 1014.4 0.0
03/09:30am 21.2 19.8 18.8 86 1.5 N 24 35 13 19 1014.9 1014.8 0.0
03/09:00am 20.7 19.9 18.5 87 1.4 N 20 32 11 17 1014.9 1014.8 7.8
03/08:30am 20.2 19.5 18.7 91 0.9 N 20 33 11 18 1015.1 1015.0 7.8
03/08:13am 20.0 18.4 18.3 90 1.1 N 24 44 13 24 1015.2 1015.1 7.8
03/08:00am 20.1 18.2 18.6 91 0.9 N 26 39 14 21 1013.8 1013.7 7.8
03/07:47am 20.0 18.5 18.5 91 0.9 N 24 33 13 18 1014.9 1014.8 6.0
03/07:30am 20.0 19.4 18.5 91 0.9 N 19 32 10 17 1015.1 1015.0 5.0
03/07:14am 20.0 19.4 18.5 91 0.9 N 19 30 10 16 1014.7 1014.6 4.6
03/07:00am 20.1 19.8 18.2 89 1.2 N 17 28 9 15 1015.4 1015.3 3.4
03/06:30am 20.0 20.0 18.1 89 1.2 N 15 26 8 14 1015.0 1014.9 3.2
03/06:00am 19.8 19.8 18.1 90 1.1 N 15 24 8 13 1014.9 1014.8 3.2
03/05:30am 19.6 19.6 18.1 91 0.9 N 15 28 8 15 1014.5 1014.4 3.0
03/05:17am 19.6 19.2 18.1 91 0.9 NNE 17 22 9 12 1014.4 1014.3 2.8
03/05:00am 19.7 20.1 18.2 91 0.9 N 13 20 7 11 1014.9 1014.8 2.2
03/04:55am 19.8 20.3 18.3 91 0.9 N 13 20 7 11 1014.9 1014.8 1.4
03/04:30am 20.1 21.2 17.9 87 1.4 N 9 13 5 7 1014.8 1014.7 0.0
03/04:00am 20.5 21.5 17.7 84 1.7 N 9 15 5 8 1014.8 1014.7 0.0
03/03:30am 20.7 21.2 17.5 82 2.0 NW 11 15 6 8 1014.8 1014.7 0.0
03/03:00am 20.7 19.4 17.3 81 2.1 N 20 32 11 17 1013.7 1013.6 0.0
03/02:30am 20.8 19.5 17.2 80 2.2 N 20 28 11 15 1013.9 1013.8 0.0
03/02:00am 20.7 19.5 17.1 80 2.2 N 19 28 10 15 1014.4 1014.3 0.0
03/01:30am 20.6 20.4 16.8 79 2.3 N 13 20 7 11 1014.6 1014.5 0.0
03/01:00am 20.5 19.8 16.3 77 2.5 N 15 22 8 12 1015.3 1015.2 0.0
03/12:30am 20.5 19.6 15.9 75 2.7 N 15 24 8 13 1015.8 1015.7 0.0
03/12:00am 20.4 18.9 15.4 73 3.0 N 17 24 9 13 1015.5 1015.4 0.0
 
Date/Time
EST
Temp
°C
App
Temp
°C
Dew
Point
Rel
Hum
%
Delta-T
°C
Wind Press
QNH
hPa
Press
MSL
hPa
Rain
since 9 am
mm
Dir
 
Spd
km/h
Gust
km/h
Spd
kts
Gust
kts
02/11:30pm 20.6 18.4 14.5 68 3.6 N 19 30 10 16 1015.9 1015.8 0.0
02/11:00pm 20.4 18.2 14.3 68 3.5 N 19 28 10 15 1015.9 1015.8 0.0
02/10:30pm 20.2 18.3 14.1 68 3.5 N 17 24 9 13 1015.9 1015.8 0.0
02/10:00pm 19.7 18.5 13.9 69 3.3 NNE 13 19 7 10 1016.3 1016.2 0.0
02/09:30pm 19.6 18.2 13.5 68 3.5 N 13 19 7 10 1016.4 1016.3 0.0
02/09:00pm 19.8 18.0 13.3 66 3.7 N 15 22 8 12 1016.3 1016.2 0.0
02/08:30pm 19.8 18.4 14.6 72 3.0 N 15 22 8 12 1016.2 1016.1 0.0
02/08:00pm 20.0 18.3 14.8 72 3.0 NNE 17 24 9 13 1016.1 1016.0 0.0
02/07:30pm 20.0 18.4 15.0 73 2.9 N 17 24 9 13 1016.0 1015.9 0.0
02/07:00pm 20.1 18.6 15.3 74 2.8 N 17 24 9 13 1016.0 1015.9 0.0
02/06:30pm 20.1 18.2 15.1 73 2.9 N 19 30 10 16 1016.1 1016.0 0.0
02/06:00pm 20.0 18.2 15.4 75 2.7 N 19 24 10 13 1016.0 1015.9 0.0
02/05:30pm 20.4 18.5 15.2 72 3.1 N 19 26 10 14 1015.9 1015.8 0.0
02/05:00pm 21.1 19.2 15.2 69 3.5 N 19 28 10 15 1015.8 1015.7 0.0
02/04:30pm 21.6 19.3 15.7 69 3.5 N 22 30 12 16 1015.9 1015.8 0.0
02/04:00pm 21.7 19.4 15.8 69 3.5 N 22 32 12 17 1015.8 1015.7 0.0
02/03:30pm 22.1 19.6 16.1 69 3.6 N 24 32 13 17 1015.8 1015.7 0.0
02/03:00pm 22.3 19.9 16.3 69 3.6 N 24 32 13 17 1016.0 1015.9 0.0
02/02:30pm 22.5 19.8 15.6 65 4.1 N 24 35 13 19 1016.1 1016.0 0.0
02/02:00pm 22.6 20.1 15.2 63 4.4 N 22 32 12 17 1016.4 1016.3 0.0

Other Formats:

Comma delimited format used in spreadsheet applications
http://www.bom.gov.au/fwo/IDQ60801/IDQ60801.95565.axf

JavaScript Object Notation format (JSON) in row-major order
http://www.bom.gov.au/fwo/IDQ60801/IDQ60801.95565.json